sensor_id;sensor_type;location;lat;lon;timestamp;pressure;altitude;pressure_sealevel;temperature;humidity
66880;BME280;53789;51.392;10.234;2022-12-26T00:00:16;97706.13;;;9.24;85.77
66880;BME280;53789;51.392;10.234;2022-12-26T00:00:37;97703.41;;;9.24;86.04
66880;BME280;53789;51.392;10.234;2022-12-26T00:01:04;97706.13;;;9.24;85.65
66880;BME280;53789;51.392;10.234;2022-12-26T00:01:27;97698.75;;;9.25;85.80
66880;BME280;53789;51.392;10.234;2022-12-26T00:01:50;97706.97;;;9.25;85.02
66880;BME280;53789;51.392;10.234;2022-12-26T00:02:11;97706.13;;;9.24;84.95
66880;BME280;53789;51.392;10.234;2022-12-26T00:02:32;97699.06;;;9.23;85.01
66880;BME280;53789;51.392;10.234;2022-12-26T00:02:52;97701.78;;;9.23;84.76
66880;BME280;53789;51.392;10.234;2022-12-26T00:03:12;97693.25;;;9.25;85.74
66880;BME280;53789;51.392;10.234;2022-12-26T00:03:32;97703.09;;;9.26;84.99
66880;BME280;53789;51.392;10.234;2022-12-26T00:03:55;97700.03;;;9.27;85.48
66880;BME280;53789;51.392;10.234;2022-12-26T00:04:16;97699.22;;;9.27;85.08
66880;BME280;53789;51.392;10.234;2022-12-26T00:04:37;97695.69;;;9.26;85.93
66880;BME280;53789;51.392;10.234;2022-12-26T00:04:57;97690.19;;;9.26;85.92
66880;BME280;53789;51.392;10.234;2022-12-26T00:05:17;97698.44;;;9.26;85.33
66880;BME280;53789;51.392;10.234;2022-12-26T00:05:37;97705.50;;;9.27;85.67
66880;BME280;53789;51.392;10.234;2022-12-26T00:05:58;97700.84;;;9.28;84.78
66880;BME280;53789;51.392;10.234;2022-12-26T00:06:21;97704.41;;;9.28;85.48
66880;BME280;53789;51.392;10.234;2022-12-26T00:06:42;97692.63;;;9.28;85.89
66880;BME280;53789;51.392;10.234;2022-12-26T00:07:02;97693.44;;;9.28;85.96
66880;BME280;53789;51.392;10.234;2022-12-26T00:07:23;97693.44;;;9.28;84.96
66880;BME280;53789;51.392;10.234;2022-12-26T00:07:43;97696.97;;;9.29;85.50
66880;BME280;53789;51.392;10.234;2022-12-26T00:08:03;97686.31;;;9.27;84.82
66880;BME280;53789;51.392;10.234;2022-12-26T00:08:24;97696.16;;;9.28;85.52
66880;BME280;53789;51.392;10.234;2022-12-26T00:08:45;97696.47;;;9.27;85.16
66880;BME280;53789;51.392;10.234;2022-12-26T00:09:06;97686.63;;;9.26;84.93
66880;BME280;53789;51.392;10.234;2022-12-26T00:09:26;97683.25;;;9.29;84.66
66880;BME280;53789;51.392;10.234;2022-12-26T00:09:47;97681.34;;;9.29;84.69
66880;BME280;53789;51.392;10.234;2022-12-26T00:10:07;97690.69;;;9.28;85.62
66880;BME280;53789;51.392;10.234;2022-12-26T00:10:27;97686.00;;;9.29;85.44
66880;BME280;53789;51.392;10.234;2022-12-26T00:10:47;97694.22;;;9.29;84.62
66880;BME280;53789;51.392;10.234;2022-12-26T00:11:08;97689.56;;;9.29;85.92
66880;BME280;53789;51.392;10.234;2022-12-26T00:11:28;97690.69;;;9.28;85.33
66880;BME280;53789;51.392;10.234;2022-12-26T00:11:49;97686.81;;;9.29;84.96
66880;BME280;53789;51.392;10.234;2022-12-26T00:12:09;97684.09;;;9.29;84.86
66880;BME280;53789;51.392;10.234;2022-12-26T00:12:29;97684.09;;;9.29;84.45
66880;BME280;53789;51.392;10.234;2022-12-26T00:12:49;97686.81;;;9.29;85.46
66880;BME280;53789;51.392;10.234;2022-12-26T00:13:10;97690.38;;;9.30;84.84
66880;BME280;53789;51.392;10.234;2022-12-26T00:13:30;97680.81;;;9.27;84.47
66880;BME280;53789;51.392;10.234;2022-12-26T00:14:05;97666.31;;;9.27;84.53
66880;BME280;53789;51.392;10.234;2022-12-26T00:14:26;97682.75;;;9.27;84.47
66880;BME280;53789;51.392;10.234;2022-12-26T00:14:47;97687.13;;;9.28;85.24
66880;BME280;53789;51.392;10.234;2022-12-26T00:15:07;97682.44;;;9.28;85.40
66880;BME280;53789;51.392;10.234;2022-12-26T00:15:27;97675.34;;;9.27;84.67
66880;BME280;53789;51.392;10.234;2022-12-26T00:15:48;97677.59;;;9.25;84.59
66880;BME280;53789;51.392;10.234;2022-12-26T00:16:11;97676.78;;;9.25;84.99
66880;BME280;53789;51.392;10.234;2022-12-26T00:16:32;97678.69;;;9.24;85.62
66880;BME280;53789;51.392;10.234;2022-12-26T00:16:53;97670.16;;;9.26;85.34
66880;BME280;53789;51.392;10.234;2022-12-26T00:17:13;97678.38;;;9.26;84.97
66880;BME280;53789;51.392;10.234;2022-12-26T00:17:33;97677.59;;;9.25;85.61
66880;BME280;53789;51.392;10.234;2022-12-26T00:17:54;97670.47;;;9.24;85.52
66880;BME280;53789;51.392;10.234;2022-12-26T00:18:14;97677.91;;;9.24;84.61
66880;BME280;53789;51.392;10.234;2022-12-26T00:18:34;97669.97;;;9.22;85.32
66880;BME280;53789;51.392;10.234;2022-12-26T00:18:55;97674.16;;;9.19;84.24
66880;BME280;53789;51.392;10.234;2022-12-26T00:19:15;97674.66;;;9.22;84.27
66880;BME280;53789;51.392;10.234;2022-12-26T00:19:36;97667.88;;;9.19;84.45
66880;BME280;53789;51.392;10.234;2022-12-26T00:19:56;97668.66;;;9.19;85.67
66880;BME280;53789;51.392;10.234;2022-12-26T00:20:16;97661.56;;;9.18;85.10
66880;BME280;53789;51.392;10.234;2022-12-26T00:20:37;97652.19;;;9.19;84.80
66880;BME280;53789;51.392;10.234;2022-12-26T00:20:57;97660.44;;;9.19;85.57
66880;BME280;53789;51.392;10.234;2022-12-26T00:21:18;97663.50;;;9.18;84.39
66880;BME280;53789;51.392;10.234;2022-12-26T00:21:39;97656.88;;;9.19;85.58
66880;BME280;53789;51.392;10.234;2022-12-26T00:21:59;97661.56;;;9.18;84.53
66880;BME280;53789;51.392;10.234;2022-12-26T00:22:20;97664.31;;;9.18;84.95
66880;BME280;53789;51.392;10.234;2022-12-26T00:22:40;97660.75;;;9.18;84.89
66880;BME280;53789;51.392;10.234;2022-12-26T00:23:00;97669.81;;;9.18;85.15
66880;BME280;53789;51.392;10.234;2022-12-26T00:23:20;97660.75;;;9.18;85.44
66880;BME280;53789;51.392;10.234;2022-12-26T00:23:42;97664.59;;;9.17;85.14
66880;BME280;53789;51.392;10.234;2022-12-26T00:24:03;97671.72;;;9.18;85.37
66880;BME280;53789;51.392;10.234;2022-12-26T00:24:23;97669.28;;;9.16;84.96
66880;BME280;53789;51.392;10.234;2022-12-26T00:24:43;97667.34;;;9.17;85.74
66880;BME280;53789;51.392;10.234;2022-12-26T00:25:04;97674.78;;;9.16;85.39
66880;BME280;53789;51.392;10.234;2022-12-26T00:25:25;97673.66;;;9.17;84.68
66880;BME280;53789;51.392;10.234;2022-12-26T00:25:45;97672.03;;;9.16;84.53
66880;BME280;53789;51.392;10.234;2022-12-26T00:26:14;97665.75;;;9.16;84.56
66880;BME280;53789;51.392;10.234;2022-12-26T00:26:35;97667.66;;;9.15;85.47
66880;BME280;53789;51.392;10.234;2022-12-26T00:26:55;97657.00;;;9.14;84.45
66880;BME280;53789;51.392;10.234;2022-12-26T00:27:15;97666.06;;;9.14;84.54
66880;BME280;53789;51.392;10.234;2022-12-26T00:27:35;97658.94;;;9.13;84.79
66880;BME280;53789;51.392;10.234;2022-12-26T00:27:56;97666.38;;;9.13;84.97
66880;BME280;53789;51.392;10.234;2022-12-26T00:28:16;97670.22;;;9.12;85.40
66880;BME280;53789;51.392;10.234;2022-12-26T00:28:37;97660.38;;;9.11;84.99
66880;BME280;53789;51.392;10.234;2022-12-26T00:28:58;97668.59;;;9.11;85.55
66880;BME280;53789;51.392;10.234;2022-12-26T00:29:18;97669.75;;;9.10;84.90
66880;BME280;53789;51.392;10.234;2022-12-26T00:29:38;97666.16;;;9.09;85.69
66880;BME280;53789;51.392;10.234;2022-12-26T00:29:59;97666.16;;;9.09;85.37
66880;BME280;53789;51.392;10.234;2022-12-26T00:30:19;97661.50;;;9.10;85.89
66880;BME280;53789;51.392;10.234;2022-12-26T00:30:39;97660.69;;;9.09;85.37
66880;BME280;53789;51.392;10.234;2022-12-26T00:31:08;97663.41;;;9.09;85.84
66880;BME280;53789;51.392;10.234;2022-12-26T00:31:32;97663.72;;;9.08;84.78
66880;BME280;53789;51.392;10.234;2022-12-26T00:31:53;97664.88;;;9.07;85.06
66880;BME280;53789;51.392;10.234;2022-12-26T00:32:13;97669.22;;;9.08;85.72
66880;BME280;53789;51.392;10.234;2022-12-26T00:32:33;97666.78;;;9.06;85.21
66880;BME280;53789;51.392;10.234;2022-12-26T00:32:54;97667.91;;;9.05;85.14
66880;BME280;53789;51.392;10.234;2022-12-26T00:33:14;97667.91;;;9.05;84.85
66880;BME280;53789;51.392;10.234;2022-12-26T00:33:35;97672.28;;;9.06;86.17
66880;BME280;53789;51.392;10.234;2022-12-26T00:33:57;97659.66;;;9.05;85.00
66880;BME280;53789;51.392;10.234;2022-12-26T00:34:17;97662.72;;;9.03;85.09
66880;BME280;53789;51.392;10.234;2022-12-26T00:34:37;97662.72;;;9.03;84.92
66880;BME280;53789;51.392;10.234;2022-12-26T00:34:57;97653.38;;;9.05;85.07
66880;BME280;53789;51.392;10.234;2022-12-26T00:35:18;97659.66;;;9.05;84.94
66880;BME280;53789;51.392;10.234;2022-12-26T00:35:38;97660.50;;;9.06;85.74
66880;BME280;53789;51.392;10.234;2022-12-26T00:36:17;97662.72;;;9.03;85.86
66880;BME280;53789;51.392;10.234;2022-12-26T00:36:38;97661.13;;;9.02;85.97
66880;BME280;53789;51.392;10.234;2022-12-26T00:36:58;97668.22;;;9.03;85.81
66880;BME280;53789;51.392;10.234;2022-12-26T00:37:19;97659.97;;;9.03;84.64
66880;BME280;53789;51.392;10.234;2022-12-26T00:37:39;97659.66;;;9.05;85.37
66880;BME280;53789;51.392;10.234;2022-12-26T00:37:59;97653.38;;;9.05;85.63
66880;BME280;53789;51.392;10.234;2022-12-26T00:38:19;97661.63;;;9.05;84.92
66880;BME280;53789;51.392;10.234;2022-12-26T00:38:42;97653.38;;;9.05;85.19
66880;BME280;53789;51.392;10.234;2022-12-26T00:39:03;97651.75;;;9.03;85.72
66880;BME280;53789;51.392;10.234;2022-12-26T00:39:23;97661.63;;;9.05;85.08
66880;BME280;53789;51.392;10.234;2022-12-26T00:39:44;97662.41;;;9.05;85.03
66880;BME280;53789;51.392;10.234;2022-12-26T00:40:05;97654.50;;;9.03;84.70
66880;BME280;53789;51.392;10.234;2022-12-26T00:40:25;97648.69;;;9.05;85.95
66880;BME280;53789;51.392;10.234;2022-12-26T00:40:45;97652.59;;;9.04;85.89
66880;BME280;53789;51.392;10.234;2022-12-26T00:41:06;97654.81;;;9.02;85.68
66880;BME280;53789;51.392;10.234;2022-12-26T00:41:27;97654.00;;;9.01;85.16
66880;BME280;53789;51.392;10.234;2022-12-26T00:41:47;97660.59;;;9.00;85.99
66880;BME280;53789;51.392;10.234;2022-12-26T00:42:08;97661.44;;;9.01;84.68
66880;BME280;53789;51.392;10.234;2022-12-26T00:42:28;97661.75;;;8.99;85.08
66880;BME280;53789;51.392;10.234;2022-12-26T00:42:48;97658.16;;;8.99;85.48
66880;BME280;53789;51.392;10.234;2022-12-26T00:43:09;97652.38;;;9.00;85.97
66880;BME280;53789;51.392;10.234;2022-12-26T00:43:29;97655.13;;;9.00;85.88
66880;BME280;53789;51.392;10.234;2022-12-26T00:43:49;97657.06;;;9.00;85.95
66880;BME280;53789;51.392;10.234;2022-12-26T00:44:10;97648.03;;;8.99;85.59
66880;BME280;53789;51.392;10.234;2022-12-26T00:44:30;97646.88;;;9.00;85.28
66880;BME280;53789;51.392;10.234;2022-12-26T00:44:50;97652.38;;;9.00;85.26
66880;BME280;53789;51.392;10.234;2022-12-26T00:45:10;97650.47;;;9.01;85.01
66880;BME280;53789;51.392;10.234;2022-12-26T00:45:31;97655.63;;;9.02;85.27
66880;BME280;53789;51.392;10.234;2022-12-26T00:45:51;97651.25;;;9.01;85.23
66880;BME280;53789;51.392;10.234;2022-12-26T00:46:12;97659.50;;;9.01;84.74
66880;BME280;53789;51.392;10.234;2022-12-26T00:46:33;97650.47;;;9.01;85.50
66880;BME280;53789;51.392;10.234;2022-12-26T00:46:53;97659.50;;;9.01;85.25
66880;BME280;53789;51.392;10.234;2022-12-26T00:47:13;97655.13;;;9.00;84.95
66880;BME280;53789;51.392;10.234;2022-12-26T00:47:34;97660.28;;;9.02;84.88
66880;BME280;53789;51.392;10.234;2022-12-26T00:47:54;97652.38;;;9.00;84.60
66880;BME280;53789;51.392;10.234;2022-12-26T00:48:14;97657.53;;;9.02;85.75
66880;BME280;53789;51.392;10.234;2022-12-26T00:48:35;97647.41;;;9.02;85.86
66880;BME280;53789;51.392;10.234;2022-12-26T00:48:56;97672.91;;;9.03;85.54
66880;BME280;53789;51.392;10.234;2022-12-26T00:49:16;97669.34;;;9.02;84.39
66880;BME280;53789;51.392;10.234;2022-12-26T00:49:36;97664.66;;;9.03;84.39
66880;BME280;53789;51.392;10.234;2022-12-26T00:49:57;97666.59;;;9.02;84.96
66880;BME280;53789;51.392;10.234;2022-12-26T00:50:17;97664.97;;;9.01;84.68
66880;BME280;53789;51.392;10.234;2022-12-26T00:50:37;97662.72;;;9.03;84.66
66880;BME280;53789;51.392;10.234;2022-12-26T00:50:59;97662.72;;;9.03;84.64
66880;BME280;53789;51.392;10.234;2022-12-26T00:51:19;97659.19;;;9.03;85.01
66880;BME280;53789;51.392;10.234;2022-12-26T00:51:39;97650.63;;;9.05;85.46
66880;BME280;53789;51.392;10.234;2022-12-26T00:52:00;97657.44;;;9.07;84.79
66880;BME280;53789;51.392;10.234;2022-12-26T00:52:20;97655.50;;;9.08;84.67
66880;BME280;53789;51.392;10.234;2022-12-26T00:52:41;97661.00;;;9.08;84.25
66880;BME280;53789;51.392;10.234;2022-12-26T00:53:01;97661.31;;;9.06;84.70
66880;BME280;53789;51.392;10.234;2022-12-26T00:53:22;97653.59;;;9.08;85.33
66880;BME280;53789;51.392;10.234;2022-12-26T00:53:42;97657.94;;;9.09;85.42
66880;BME280;53789;51.392;10.234;2022-12-26T00:54:03;97655.19;;;9.09;85.47
66880;BME280;53789;51.392;10.234;2022-12-26T00:54:23;97653.28;;;9.10;85.02
66880;BME280;53789;51.392;10.234;2022-12-26T00:54:43;97648.91;;;9.09;84.37
66880;BME280;53789;51.392;10.234;2022-12-26T00:55:04;97650.53;;;9.10;85.32
66880;BME280;53789;51.392;10.234;2022-12-26T00:55:24;97658.75;;;9.10;85.15
66880;BME280;53789;51.392;10.234;2022-12-26T00:55:45;97648.59;;;9.10;84.93
66880;BME280;53789;51.392;10.234;2022-12-26T00:56:05;97652.13;;;9.11;84.51
66880;BME280;53789;51.392;10.234;2022-12-26T00:56:26;97651.34;;;9.10;84.10
66880;BME280;53789;51.392;10.234;2022-12-26T00:56:46;97645.84;;;9.10;84.21
66880;BME280;53789;51.392;10.234;2022-12-26T00:57:06;97647.47;;;9.11;84.86
66880;BME280;53789;51.392;10.234;2022-12-26T00:57:26;97653.75;;;9.12;84.49
66880;BME280;53789;51.392;10.234;2022-12-26T00:57:47;97643.59;;;9.12;84.65
66880;BME280;53789;51.392;10.234;2022-12-26T00:58:07;97655.72;;;9.11;85.03
66880;BME280;53789;51.392;10.234;2022-12-26T00:58:28;97647.47;;;9.11;85.05
66880;BME280;53789;51.392;10.234;2022-12-26T00:58:48;97651.81;;;9.12;84.29
66880;BME280;53789;51.392;10.234;2022-12-26T00:59:08;97655.41;;;9.13;84.54
66880;BME280;53789;51.392;10.234;2022-12-26T00:59:29;97660.06;;;9.12;84.23
66880;BME280;53789;51.392;10.234;2022-12-26T00:59:49;97668.28;;;9.12;84.22
66880;BME280;53789;51.392;10.234;2022-12-26T01:00:10;97668.59;;;9.11;84.29
66880;BME280;53789;51.392;10.234;2022-12-26T01:00:31;97666.69;;;9.11;84.30
66880;BME280;53789;51.392;10.234;2022-12-26T01:00:52;97672.16;;;9.11;84.69
66880;BME280;53789;51.392;10.234;2022-12-26T01:01:21;97679.56;;;9.11;83.95
66880;BME280;53789;51.392;10.234;2022-12-26T01:01:41;97671.03;;;9.12;83.94
66880;BME280;53789;51.392;10.234;2022-12-26T01:02:02;97672.16;;;9.11;84.98
66880;BME280;53789;51.392;10.234;2022-12-26T01:02:22;97672.97;;;9.12;84.96
66880;BME280;53789;51.392;10.234;2022-12-26T01:02:42;97677.34;;;9.13;84.87
66880;BME280;53789;51.392;10.234;2022-12-26T01:03:05;97671.84;;;9.13;84.90
66880;BME280;53789;51.392;10.234;2022-12-26T01:03:26;97673.47;;;9.14;84.41
66880;BME280;53789;51.392;10.234;2022-12-26T01:03:48;97677.03;;;9.14;84.71
66880;BME280;53789;51.392;10.234;2022-12-26T01:04:08;97671.53;;;9.14;84.04
66880;BME280;53789;51.392;10.234;2022-12-26T01:04:28;97666.06;;;9.14;84.80
66880;BME280;53789;51.392;10.234;2022-12-26T01:04:49;97667.16;;;9.13;84.87
66880;BME280;53789;51.392;10.234;2022-12-26T01:05:10;97674.28;;;9.14;83.91
66880;BME280;53789;51.392;10.234;2022-12-26T01:05:30;97669.28;;;9.16;84.79
66880;BME280;53789;51.392;10.234;2022-12-26T01:05:51;97672.34;;;9.15;84.46
66880;BME280;53789;51.392;10.234;2022-12-26T01:06:11;97668.50;;;9.16;84.81
66880;BME280;53789;51.392;10.234;2022-12-26T01:06:32;97658.31;;;9.16;83.83
66880;BME280;53789;51.392;10.234;2022-12-26T01:06:52;97665.44;;;9.17;84.11
66880;BME280;53789;51.392;10.234;2022-12-26T01:07:13;97662.38;;;9.19;84.82
66880;BME280;53789;51.392;10.234;2022-12-26T01:07:37;97660.75;;;9.18;83.86
66880;BME280;53789;51.392;10.234;2022-12-26T01:07:58;97661.56;;;9.18;83.62
66880;BME280;53789;51.392;10.234;2022-12-26T01:08:18;97664.31;;;9.18;83.79
66880;BME280;53789;51.392;10.234;2022-12-26T01:08:39;97664.00;;;9.20;84.51
66880;BME280;53789;51.392;10.234;2022-12-26T01:08:59;97661.56;;;9.18;83.69
66880;BME280;53789;51.392;10.234;2022-12-26T01:09:19;97665.91;;;9.19;84.67
66880;BME280;53789;51.392;10.234;2022-12-26T01:09:39;97663.50;;;9.18;83.82
66880;BME280;53789;51.392;10.234;2022-12-26T01:10:00;97667.88;;;9.19;84.50
66880;BME280;53789;51.392;10.234;2022-12-26T01:10:20;97667.06;;;9.18;83.66
66880;BME280;53789;51.392;10.234;2022-12-26T01:10:43;97672.56;;;9.18;84.30
66880;BME280;53789;51.392;10.234;2022-12-26T01:11:10;97662.38;;;9.19;83.50
66880;BME280;53789;51.392;10.234;2022-12-26T01:11:30;97664.31;;;9.18;84.20
66880;BME280;53789;51.392;10.234;2022-12-26T01:11:50;97676.09;;;9.19;83.77
66880;BME280;53789;51.392;10.234;2022-12-26T01:12:11;97666.22;;;9.18;83.20
66880;BME280;53789;51.392;10.234;2022-12-26T01:12:31;97665.13;;;9.19;83.92
66880;BME280;53789;51.392;10.234;2022-12-26T01:12:51;97663.50;;;9.18;84.52
66880;BME280;53789;51.392;10.234;2022-12-26T01:13:12;97674.47;;;9.18;84.47
66880;BME280;53789;51.392;10.234;2022-12-26T01:13:33;97658.84;;;9.18;83.26
66880;BME280;53789;51.392;10.234;2022-12-26T01:13:54;97661.56;;;9.18;84.47
66880;BME280;53789;51.392;10.234;2022-12-26T01:14:17;97661.56;;;9.18;83.28
66880;BME280;53789;51.392;10.234;2022-12-26T01:14:37;97667.06;;;9.18;84.30
66880;BME280;53789;51.392;10.234;2022-12-26T01:14:59;97665.91;;;9.19;83.39
66880;BME280;53789;51.392;10.234;2022-12-26T01:15:19;97666.75;;;9.20;84.17
66880;BME280;53789;51.392;10.234;2022-12-26T01:15:47;97665.59;;;9.21;83.78
66880;BME280;53789;51.392;10.234;2022-12-26T01:16:07;97669.97;;;9.22;84.35
66880;BME280;53789;51.392;10.234;2022-12-26T01:16:28;97668.34;;;9.21;84.14
66880;BME280;53789;51.392;10.234;2022-12-26T01:16:48;97669.97;;;9.22;84.28
66880;BME280;53789;51.392;10.234;2022-12-26T01:17:08;97672.72;;;9.22;83.78
66880;BME280;53789;51.392;10.234;2022-12-26T01:17:29;97669.19;;;9.22;84.32
66880;BME280;53789;51.392;10.234;2022-12-26T01:17:49;97671.09;;;9.21;83.90
66880;BME280;53789;51.392;10.234;2022-12-26T01:18:09;97660.13;;;9.21;84.41
66880;BME280;53789;51.392;10.234;2022-12-26T01:18:30;97669.19;;;9.22;83.61
66880;BME280;53789;51.392;10.234;2022-12-26T01:18:50;97669.97;;;9.22;83.20
66880;BME280;53789;51.392;10.234;2022-12-26T01:19:11;97674.66;;;9.22;84.32
66880;BME280;53789;51.392;10.234;2022-12-26T01:19:31;97667.56;;;9.20;84.21
66880;BME280;53789;51.392;10.234;2022-12-26T01:19:52;97674.97;;;9.20;84.05
66880;BME280;53789;51.392;10.234;2022-12-26T01:20:12;97673.84;;;9.21;83.49
66880;BME280;53789;51.392;10.234;2022-12-26T01:20:32;97667.56;;;9.20;84.22
66880;BME280;53789;51.392;10.234;2022-12-26T01:20:58;97674.66;;;9.22;84.17
66880;BME280;53789;51.392;10.234;2022-12-26T01:21:18;97678.22;;;9.22;84.26
66880;BME280;53789;51.392;10.234;2022-12-26T01:21:39;97675.47;;;9.22;83.50
66880;BME280;53789;51.392;10.234;2022-12-26T01:21:59;97671.63;;;9.23;83.77
66880;BME280;53789;51.392;10.234;2022-12-26T01:22:20;97667.72;;;9.24;83.44
66880;BME280;53789;51.392;10.234;2022-12-26T01:22:41;97662.25;;;9.24;84.13
66880;BME280;53789;51.392;10.234;2022-12-26T01:23:01;97663.38;;;9.23;83.37
66880;BME280;53789;51.392;10.234;2022-12-26T01:23:21;97660.63;;;9.23;84.05
66880;BME280;53789;51.392;10.234;2022-12-26T01:23:42;97666.13;;;9.23;83.95
66880;BME280;53789;51.392;10.234;2022-12-26T01:24:02;97667.72;;;9.24;84.03
66880;BME280;53789;51.392;10.234;2022-12-26T01:24:22;97664.66;;;9.26;83.58
66880;BME280;53789;51.392;10.234;2022-12-26T01:24:43;97663.88;;;9.25;84.11
66880;BME280;53789;51.392;10.234;2022-12-26T01:25:04;97656.13;;;9.27;83.21
66880;BME280;53789;51.392;10.234;2022-12-26T01:25:24;97661.28;;;9.29;83.04
66880;BME280;53789;51.392;10.234;2022-12-26T01:25:44;97662.13;;;9.29;82.79
66880;BME280;53789;51.392;10.234;2022-12-26T01:26:05;97653.91;;;9.29;84.02
66880;BME280;53789;51.392;10.234;2022-12-26T01:26:26;97666.50;;;9.30;82.67
66880;BME280;53789;51.392;10.234;2022-12-26T01:26:46;97661.00;;;9.30;83.96
66880;BME280;53789;51.392;10.234;2022-12-26T01:27:06;97657.13;;;9.31;82.98
66880;BME280;53789;51.392;10.234;2022-12-26T01:27:26;97655.81;;;9.29;83.44
66880;BME280;53789;51.392;10.234;2022-12-26T01:27:47;97655.53;;;9.30;82.92
66880;BME280;53789;51.392;10.234;2022-12-26T01:28:07;97664.88;;;9.29;83.20
66880;BME280;53789;51.392;10.234;2022-12-26T01:28:27;97661.00;;;9.30;82.08
66880;BME280;53789;51.392;10.234;2022-12-26T01:28:49;97661.81;;;9.31;83.25
66880;BME280;53789;51.392;10.234;2022-12-26T01:29:09;97663.44;;;9.32;82.62
66880;BME280;53789;51.392;10.234;2022-12-26T01:29:30;97673.59;;;9.31;82.12
66880;BME280;53789;51.392;10.234;2022-12-26T01:29:51;97667.31;;;9.31;82.77
66880;BME280;53789;51.392;10.234;2022-12-26T01:30:12;97669.72;;;9.32;83.08
66880;BME280;53789;51.392;10.234;2022-12-26T01:30:32;97668.09;;;9.31;82.19
66880;BME280;53789;51.392;10.234;2022-12-26T01:30:52;97657.97;;;9.32;82.85
66880;BME280;53789;51.392;10.234;2022-12-26T01:31:12;97667.78;;;9.33;82.40
66880;BME280;53789;51.392;10.234;2022-12-26T01:31:33;97665.91;;;9.33;83.00
66880;BME280;53789;51.392;10.234;2022-12-26T01:31:53;97673.00;;;9.34;81.72
66880;BME280;53789;51.392;10.234;2022-12-26T01:32:13;97668.03;;;9.36;82.44
66880;BME280;53789;51.392;10.234;2022-12-26T01:32:34;97659.78;;;9.36;81.93
66880;BME280;53789;51.392;10.234;2022-12-26T01:32:54;97664.13;;;9.37;81.64
66880;BME280;53789;51.392;10.234;2022-12-26T01:33:15;97663.03;;;9.39;82.18
66880;BME280;53789;51.392;10.234;2022-12-26T01:33:35;97668.50;;;9.39;81.58
66880;BME280;53789;51.392;10.234;2022-12-26T01:33:55;97675.63;;;9.40;82.60
66880;BME280;53789;51.392;10.234;2022-12-26T01:34:16;97674.81;;;9.39;81.69
66880;BME280;53789;51.392;10.234;2022-12-26T01:34:36;97666.56;;;9.39;81.60
66880;BME280;53789;51.392;10.234;2022-12-26T01:34:56;97665.44;;;9.40;82.50
66880;BME280;53789;51.392;10.234;2022-12-26T01:35:16;97665.13;;;9.42;82.01
66880;BME280;53789;51.392;10.234;2022-12-26T01:35:37;97669.00;;;9.41;81.38
66880;BME280;53789;51.392;10.234;2022-12-26T01:35:57;97671.47;;;9.42;81.39
66880;BME280;53789;51.392;10.234;2022-12-26T01:36:18;97670.63;;;9.42;82.04
66880;BME280;53789;51.392;10.234;2022-12-26T01:36:38;97667.56;;;9.43;81.84
66880;BME280;53789;51.392;10.234;2022-12-26T01:36:58;97678.22;;;9.45;81.82
66880;BME280;53789;51.392;10.234;2022-12-26T01:37:19;97676.63;;;9.44;81.89
66880;BME280;53789;51.392;10.234;2022-12-26T01:37:39;97672.25;;;9.43;81.25
66880;BME280;53789;51.392;10.234;2022-12-26T01:37:59;97674.69;;;9.44;81.27
66880;BME280;53789;51.392;10.234;2022-12-26T01:38:20;97668.88;;;9.46;81.40
66880;BME280;53789;51.392;10.234;2022-12-26T01:38:41;97674.38;;;9.46;80.91
66880;BME280;53789;51.392;10.234;2022-12-26T01:39:01;97682.28;;;9.47;81.83
66880;BME280;53789;51.392;10.234;2022-12-26T01:39:22;97675.50;;;9.45;81.49
66880;BME280;53789;51.392;10.234;2022-12-26T01:39:42;97673.25;;;9.47;81.53
66880;BME280;53789;51.392;10.234;2022-12-26T01:40:03;97670.53;;;9.47;81.45
66880;BME280;53789;51.392;10.234;2022-12-26T01:40:24;97678.75;;;9.47;81.59
66880;BME280;53789;51.392;10.234;2022-12-26T01:40:44;97680.34;;;9.48;81.47
66880;BME280;53789;51.392;10.234;2022-12-26T01:41:05;97672.94;;;9.48;81.53
66880;BME280;53789;51.392;10.234;2022-12-26T01:41:25;97666.31;;;9.49;81.97
66880;BME280;53789;51.392;10.234;2022-12-26T01:41:46;97683.63;;;9.50;81.82
66880;BME280;53789;51.392;10.234;2022-12-26T01:42:15;97676.19;;;9.50;81.02
66880;BME280;53789;51.392;10.234;2022-12-26T01:42:40;97673.44;;;9.50;81.00
66880;BME280;53789;51.392;10.234;2022-12-26T01:43:00;97683.28;;;9.51;81.46
66880;BME280;53789;51.392;10.234;2022-12-26T01:43:21;97679.41;;;9.52;81.13
66880;BME280;53789;51.392;10.234;2022-12-26T01:45:30;97685.91;;;9.57;81.16
66880;BME280;53789;51.392;10.234;2022-12-26T01:45:50;97697.72;;;9.57;81.01
66880;BME280;53789;51.392;10.234;2022-12-26T01:46:11;97688.34;;;9.58;81.58
66880;BME280;53789;51.392;10.234;2022-12-26T01:46:41;97698.50;;;9.58;81.55
66880;BME280;53789;51.392;10.234;2022-12-26T01:47:03;97689.97;;;9.59;82.02
66880;BME280;53789;51.392;10.234;2022-12-26T01:47:35;97692.72;;;9.59;80.94
66880;BME280;53789;51.392;10.234;2022-12-26T01:48:21;97690.75;;;9.60;80.92
66880;BME280;53789;51.392;10.234;2022-12-26T01:48:46;97693.19;;;9.61;81.52
66880;BME280;53789;51.392;10.234;2022-12-26T01:49:14;97694.81;;;9.62;80.76
66880;BME280;53789;51.392;10.234;2022-12-26T01:49:42;97692.06;;;9.62;80.78
66880;BME280;53789;51.392;10.234;2022-12-26T01:50:05;97701.44;;;9.61;80.34
66880;BME280;53789;51.392;10.234;2022-12-26T01:51:00;97696.44;;;9.63;81.49
66880;BME280;53789;51.392;10.234;2022-12-26T01:51:25;97701.13;;;9.63;81.28
66880;BME280;53789;51.392;10.234;2022-12-26T01:51:53;97692.56;;;9.64;81.48
66880;BME280;53789;51.392;10.234;2022-12-26T01:52:23;97696.94;;;9.65;80.57
66880;BME280;53789;51.392;10.234;2022-12-26T01:52:48;97692.25;;;9.66;80.64
66880;BME280;53789;51.392;10.234;2022-12-26T01:53:15;97687.28;;;9.68;80.30
66880;BME280;53789;51.392;10.234;2022-12-26T01:53:48;97689.69;;;9.69;80.69
66880;BME280;53789;51.392;10.234;2022-12-26T01:54:11;97692.75;;;9.68;81.19
66880;BME280;53789;51.392;10.234;2022-12-26T01:54:36;97688.59;;;9.70;80.67
66880;BME280;53789;51.392;10.234;2022-12-26T01:54:59;97689.38;;;9.71;81.26